»·PEaware :: UAL1626 KBFL-KSFO

UAL1626 :: KBFL-KSFO

FLIGHT INFORMATION

Flight Status: Arrived
Operator:
United Airlines
More flights by this operator :: More flights under this callsign
Pilot: Michael O. (129)
Aircraft: EMBRAER EMB-170/175
(E170)
More flights by this aircraft type
Origin: KBFL Meadows
United States
Destination: KSFO San Francisco Intl
United States
More flights between these airports :: More routes between these airports
Route: +MEADO3 AVE MAKRS SERFR SERFR2
File this flight plan on PilotEdge
Remarks:
Altitude:
(Current/Filed)
260ft
Speed:
(Current/Filed)
220kts
Departed: 20-Apr-17 09:26 PM
Arrived: 20-Apr-17 10:13 PM
Distance/Time
Traveled:
207nm/0:47
Distance/Time
To Go:
Arrived

Flight Plot

Page will automatically refresh every two minutes.

Flight plan parsing failed; only flown route is shown


Map Options




Map Legend


Flown Route
Filed Route
Departure Airport
Arrival Airport
Navaid (VOR, NDB)
Fix

Horizontal Profiles

Position Reports

Time Latitude Longitude Heading Altitude Ground
Speed
20-Apr-17 21:02 35.437156 -119.055124 89 518ft 0kts
20-Apr-17 21:03 35.437156 -119.055124 89 518ft 0kts
20-Apr-17 21:04 35.437156 -119.055124 89 518ft 0kts
20-Apr-17 21:05 35.437156 -119.055124 89 518ft 0kts
20-Apr-17 21:06 35.437156 -119.055124 89 518ft 0kts
20-Apr-17 21:07 35.437156 -119.055124 89 518ft 0kts
20-Apr-17 21:08 35.437156 -119.055124 89 518ft 0kts
20-Apr-17 21:09 35.437156 -119.055124 89 518ft 0kts
20-Apr-17 21:10 35.437156 -119.055124 89 518ft 0kts
20-Apr-17 21:11 35.437156 -119.055124 89 518ft 0kts
20-Apr-17 21:12 35.437156 -119.055124 89 518ft 0kts
20-Apr-17 21:13 35.437156 -119.055124 89 518ft 0kts
20-Apr-17 21:14 35.437156 -119.055124 89 518ft 0kts
20-Apr-17 21:15 35.437156 -119.055124 89 518ft 0kts
20-Apr-17 21:16 35.437156 -119.055124 89 518ft 0kts
20-Apr-17 21:17 35.437156 -119.055124 89 518ft 0kts
20-Apr-17 21:18 35.437156 -119.055124 89 518ft 0kts
20-Apr-17 21:19 35.437156 -119.055124 89 518ft 0kts
20-Apr-17 21:20 35.437156 -119.055122 90 518ft 0kts
20-Apr-17 21:21 35.437156 -119.055112 90 518ft 0kts
20-Apr-17 21:22 35.435476 -119.055457 179 518ft 19kts
20-Apr-17 21:23 35.430083 -119.049391 135 518ft 24kts
20-Apr-17 21:24 35.425629 -119.044940 238 518ft 14kts
20-Apr-17 21:25 35.425561 -119.045115 252 518ft 0kts
20-Apr-17 21:26 35.425560 -119.045119 252 518ft 0kts
20-Apr-17 21:27 35.425640 -119.046219 299 518ft 15kts
20-Apr-17 21:28 35.447744 -119.073760 313 1938ft 154kts
20-Apr-17 21:29 35.490859 -119.130106 314 2871ft 277kts
20-Apr-17 21:30 35.535256 -119.212770 289 4383ft 288kts
20-Apr-17 21:31 35.539130 -119.304892 277 6290ft 268kts
20-Apr-17 21:32 35.547040 -119.396757 279 8289ft 272kts
20-Apr-17 21:33 35.561392 -119.491190 285 10328ft 298kts
20-Apr-17 21:34 35.581466 -119.595610 285 12368ft 332kts
20-Apr-17 21:35 35.602418 -119.710037 284 14379ft 349kts
20-Apr-17 21:36 35.623148 -119.826941 283 16377ft 349kts
20-Apr-17 21:37 35.643633 -119.942514 283 18366ft 343kts
20-Apr-17 21:38 35.663624 -120.055393 282 20354ft 330kts
20-Apr-17 21:39 35.682791 -120.163658 282 22340ft 324kts
20-Apr-17 21:40 35.699282 -120.256727 282 24036ft 332kts
20-Apr-17 21:41 35.719060 -120.368471 283 25972ft 337kts
20-Apr-17 21:42 35.737695 -120.473451 283 26277ft 378kts
20-Apr-17 21:43 35.761466 -120.607419 283 26272ft 414kts
20-Apr-17 21:44 35.786514 -120.748821 283 26270ft 425kts
20-Apr-17 21:45 35.811489 -120.890013 283 26270ft 419kts
20-Apr-17 21:46 35.835862 -121.029270 284 26272ft 410kts
20-Apr-17 21:47 35.880694 -121.152230 311 26170ft 385kts
20-Apr-17 21:48 35.954893 -121.240695 314 24480ft 352kts
20-Apr-17 21:49 36.021054 -121.316026 314 24278ft 300kts
20-Apr-17 21:50 36.080789 -121.389686 330 24295ft 320kts
20-Apr-17 21:51 36.157315 -121.439441 325 23426ft 301kts
20-Apr-17 21:52 36.229816 -121.493309 324 21122ft 304kts
20-Apr-17 21:53 36.298164 -121.545275 324 20307ft 261kts
20-Apr-17 21:54 36.364972 -121.597215 324 20320ft 311kts
20-Apr-17 21:55 36.436063 -121.652968 324 20327ft 372kts
20-Apr-17 21:56 36.526695 -121.724019 324 20015ft 381kts
20-Apr-17 21:57 36.613452 -121.792405 325 16800ft 365kts
20-Apr-17 21:58 36.698320 -121.859727 325 15138ft 360kts
20-Apr-17 21:59 36.786886 -121.909738 345 12533ft 348kts
20-Apr-17 22:00 36.880062 -121.934227 346 10261ft 336kts
20-Apr-17 22:01 36.964348 -121.957827 344 9576ft 292kts
20-Apr-17 22:02 37.037100 -121.985599 343 7561ft 257kts
20-Apr-17 22:03 37.103671 -122.011781 343 6204ft 247kts
20-Apr-17 22:04 37.169794 -122.037748 343 6010ft 248kts
20-Apr-17 22:05 37.235332 -122.063557 343 6003ft 247kts
20-Apr-17 22:06 37.300715 -122.090015 342 5965ft 244kts
20-Apr-17 22:07 37.365135 -122.116505 344 4524ft 242kts
20-Apr-17 22:08 37.427639 -122.141094 342 3852ft 219kts
20-Apr-17 22:09 37.482793 -122.163127 342 3794ft 203kts
20-Apr-17 22:10 37.536121 -122.184294 341 3271ft 200kts
20-Apr-17 22:11 37.564858 -122.240343 292 2410ft 191kts
20-Apr-17 22:12 37.581551 -122.292211 299 1697ft 145kts
20-Apr-17 22:13 37.602178 -122.334514 293 412ft 128kts
20-Apr-17 22:14 37.617555 -122.372214 295 25ft 111kts
20-Apr-17 22:15 37.622105 -122.385814 262 23ft 17kts
20-Apr-17 22:16 37.618638 -122.386166 168 23ft 0kts
20-Apr-17 22:17 37.618636 -122.386166 168 23ft 0kts
20-Apr-17 22:18 37.618636 -122.386166 168 23ft 0kts
20-Apr-17 22:19 37.618636 -122.386166 168 23ft 0kts
20-Apr-17 22:20 37.618636 -122.386166 168 23ft 0kts

Navigation Log

Ident Type
Flight plan parsing failed, navigation log unavailable